Time;durP1;ratioP1;P1;durP2;ratioP2;P2;SDS_P1;SDS_P2;PMS_P1;PMS_P2;Temp;Humidity;BMP_temperature;BMP_pressure;BME280_temperature;BME280_humidity;BME280_pressure;Samples;Min_cycle;Max_cycle;Signal;HPM_P1;HPM_P2
2023/06/19 00:00:44;;;;;;;8.15;5.72;;;24.40;70.20;;;;;;6185253;23;20096;-81
2023/06/19 00:03:10;;;;;;;7.60;5.50;;;24.30;70.20;;;;;;6158680;23;20110;-81
2023/06/19 00:05:36;;;;;;;7.32;5.43;;;24.30;70.20;;;;;;6158404;23;20021;-80
2023/06/19 00:08:03;;;;;;;6.70;5.60;;;24.30;70.20;;;;;;6156911;23;20017;-81
2023/06/19 00:10:29;;;;;;;7.78;5.68;;;24.30;70.30;;;;;;6158036;23;20472;-80
2023/06/19 00:12:54;;;;;;;8.00;5.40;;;24.20;70.30;;;;;;6157473;23;20099;-81
2023/06/19 00:15:20;;;;;;;6.68;5.43;;;24.20;70.40;;;;;;6158560;23;20024;-81
2023/06/19 00:17:45;;;;;;;6.78;5.53;;;24.20;70.30;;;;;;6185511;23;20028;-81
2023/06/19 00:20:13;;;;;;;7.28;5.38;;;24.20;70.30;;;;;;6158118;23;20525;-80
2023/06/19 00:22:39;;;;;;;7.43;5.68;;;24.10;70.30;;;;;;6158545;23;20047;-81
2023/06/19 00:25:04;;;;;;;6.75;5.47;;;24.10;70.30;;;;;;6158361;23;20017;-81
2023/06/19 00:27:30;;;;;;;7.55;5.85;;;24.10;70.40;;;;;;6183865;23;20017;-80
2023/06/19 00:30:01;;;;;;;7.32;5.40;;;24.10;70.30;;;;;;6183031;23;20334;-80
2023/06/19 00:32:28;;;;;;;7.47;5.40;;;24.00;70.20;;;;;;6184239;23;20021;-81
2023/06/19 00:34:53;;;;;;;6.78;5.57;;;24.00;70.30;;;;;;6183868;23;20021;-81
2023/06/19 00:37:19;;;;;;;6.95;5.43;;;24.00;70.40;;;;;;6156925;23;20017;-81
2023/06/19 00:39:45;;;;;;;7.20;5.43;;;24.00;70.40;;;;;;6157453;23;20013;-81
2023/06/19 00:42:10;;;;;;;7.45;5.50;;;24.00;70.40;;;;;;6156452;23;20346;-81
2023/06/19 00:44:36;;;;;;;7.32;5.47;;;23.90;70.10;;;;;;6157485;23;20025;-81
2023/06/19 00:47:03;;;;;;;8.13;5.75;;;23.90;70.20;;;;;;6156734;23;20021;-81
2023/06/19 00:49:30;;;;;;;7.22;5.63;;;23.90;70.60;;;;;;6157609;23;20027;-80
2023/06/19 00:51:56;;;;;;;7.45;5.07;;;23.90;70.90;;;;;;6159068;23;20027;-81
2023/06/19 00:54:22;;;;;;;9.82;5.15;;;23.90;71.00;;;;;;6185750;23;20092;-81
2023/06/19 00:56:48;;;;;;;6.43;5.22;;;23.90;71.30;;;;;;6159549;23;20017;-81
2023/06/19 00:59:19;;;;;;;7.57;5.28;;;23.90;71.20;;;;;;6187435;23;20017;-81
2023/06/19 01:01:45;;;;;;;7.25;5.18;;;23.80;71.10;;;;;;6159744;23;20021;-80
2023/06/19 01:04:11;;;;;;;6.97;5.65;;;23.80;71.30;;;;;;6159526;23;20032;-80
2023/06/19 01:07:02;;;;;;;7.20;5.55;;;23.80;71.20;;;;;;6160548;23;20496;-80
2023/06/19 01:09:59;;;;;;;6.28;5.22;;;23.80;70.70;;;;;;6186877;23;20013;-80
2023/06/19 01:12:33;;;;;;;8.00;5.43;;;23.80;71.10;;;;;;6186569;23;20017;-80
2023/06/19 01:15:00;;;;;;;7.25;5.55;;;23.70;71.00;;;;;;6186508;23;20017;-80
2023/06/19 01:17:42;;;;;;;7.18;5.60;;;23.70;71.40;;;;;;6159579;23;20017;-81
2023/06/19 01:20:10;;;;;;;6.22;5.10;;;23.70;71.10;;;;;;6186697;23;20017;-81
2023/06/19 01:22:36;;;;;;;7.30;5.35;;;23.60;71.60;;;;;;6186260;23;20028;-80
2023/06/19 01:25:04;;;;;;;7.80;5.85;;;23.60;71.70;;;;;;6185708;23;20017;-80
2023/06/19 01:27:30;;;;;;;6.85;5.38;;;23.60;70.90;;;;;;6187031;23;20017;-81
2023/06/19 01:29:57;;;;;;;7.68;5.28;;;23.60;71.20;;;;;;6186485;23;20478;-80
2023/06/19 01:32:47;;;;;;;6.35;4.72;;;23.60;71.50;;;;;;6159021;23;20106;-81
2023/06/19 01:35:15;;;;;;;7.68;5.55;;;23.60;71.40;;;;;;6187069;23;20029;-80
2023/06/19 01:37:42;;;;;;;8.05;5.65;;;23.60;71.80;;;;;;6160021;23;20100;-81
2023/06/19 01:40:10;;;;;;;6.50;5.10;;;23.60;71.90;;;;;;6185680;23;20032;-81
2023/06/19 01:42:38;;;;;;;8.45;5.85;;;23.50;71.60;;;;;;6186322;23;20088;-81
2023/06/19 01:45:05;;;;;;;6.68;5.35;;;23.50;70.70;;;;;;6186238;23;20092;-80
2023/06/19 01:47:31;;;;;;;8.30;6.05;;;23.50;71.00;;;;;;6159219;23;20438;-81
2023/06/19 01:49:57;;;;;;;8.15;5.68;;;23.40;70.40;;;;;;6186414;23;20028;-81
2023/06/19 01:52:24;;;;;;;8.38;6.00;;;23.40;69.40;;;;;;6186715;23;20015;-81
2023/06/19 01:54:50;;;;;;;7.03;5.20;;;23.40;69.90;;;;;;6185857;23;20009;-81
2023/06/19 01:57:16;;;;;;;7.53;5.60;;;23.40;70.40;;;;;;6186073;23;20345;-81
2023/06/19 01:59:41;;;;;;;7.10;5.38;;;23.30;71.20;;;;;;6159547;23;20009;-80
2023/06/19 02:02:07;;;;;;;6.93;5.05;;;23.30;71.50;;;;;;6159047;23;20048;-80
2023/06/19 02:04:33;;;;;;;7.75;5.22;;;23.30;71.60;;;;;;6186420;23;20092;-81
2023/06/19 02:06:59;;;;;;;7.05;5.50;;;23.30;71.10;;;;;;6185266;23;20017;-80
2023/06/19 02:09:24;;;;;;;7.00;5.07;;;23.30;70.50;;;;;;6186742;23;20024;-81
2023/06/19 02:11:50;;;;;;;6.88;5.18;;;23.30;71.10;;;;;;6185881;23;20088;-80
2023/06/19 02:14:16;;;;;;;7.47;5.70;;;23.20;71.10;;;;;;6185807;23;20017;-80
2023/06/19 02:16:43;;;;;;;7.80;5.80;;;23.20;71.10;;;;;;6186203;23;20028;-80
2023/06/19 02:19:12;;;;;;;6.15;4.90;;;23.20;70.70;;;;;;6185782;23;20021;-80
2023/06/19 02:21:38;;;;;;;9.80;5.15;;;23.20;71.40;;;;;;6159082;23;20013;-80
2023/06/19 02:24:04;;;;;;;7.40;5.50;;;23.10;71.70;;;;;;6185840;23;20457;-81
2023/06/19 02:26:30;;;;;;;7.20;5.22;;;23.10;71.00;;;;;;6159871;23;20045;-80
2023/06/19 02:28:56;;;;;;;6.57;5.43;;;23.10;70.70;;;;;;6185238;23;20025;-80
2023/06/19 02:31:24;;;;;;;7.85;5.80;;;23.00;70.20;;;;;;6159371;23;20020;-80
2023/06/19 02:33:50;;;;;;;8.52;5.28;;;23.00;69.20;;;;;;6159403;23;20024;-80
2023/06/19 02:36:19;;;;;;;8.82;5.68;;;23.00;69.60;;;;;;6185091;23;20017;-80
2023/06/19 02:38:49;;;;;;;8.77;5.90;;;23.00;69.40;;;;;;6159824;23;20092;-80
2023/06/19 02:41:15;;;;;;;7.28;5.35;;;23.00;69.50;;;;;;6159795;23;20028;-81
2023/06/19 02:43:45;;;;;;;7.85;5.78;;;23.00;70.40;;;;;;6185503;23;20426;-80
2023/06/19 02:46:11;;;;;;;6.18;4.80;;;22.90;70.40;;;;;;6185752;23;20013;-80
2023/06/19 02:48:36;;;;;;;7.10;5.40;;;22.90;70.90;;;;;;6186394;23;20092;-80
2023/06/19 02:51:02;;;;;;;8.55;5.97;;;22.90;71.20;;;;;;6158090;23;20068;-81
2023/06/19 02:53:28;;;;;;;6.65;5.15;;;22.90;70.50;;;;;;6159382;23;20032;-80
2023/06/19 02:55:53;;;;;;;8.23;5.55;;;22.90;70.90;;;;;;6158303;23;20013;-81
2023/06/19 02:58:19;;;;;;;7.65;6.00;;;22.80;70.80;;;;;;6186454;23;20021;-81
2023/06/19 03:00:45;;;;;;;7.13;5.82;;;22.80;70.50;;;;;;6186165;23;20434;-81
2023/06/19 03:03:12;;;;;;;7.35;5.85;;;22.80;70.50;;;;;;6184112;23;20027;-81
2023/06/19 03:05:38;;;;;;;8.90;5.97;;;22.80;70.80;;;;;;6159544;23;20013;-80
2023/06/19 03:08:04;;;;;;;7.10;5.70;;;22.70;70.60;;;;;;6185669;23;20326;-80
2023/06/19 03:10:30;;;;;;;7.40;5.60;;;22.70;70.80;;;;;;6185095;23;20013;-80
2023/06/19 03:12:58;;;;;;;6.53;5.50;;;22.70;71.00;;;;;;6184537;23;20048;-81
2023/06/19 03:15:24;;;;;;;8.90;6.15;;;22.70;71.50;;;;;;6185405;23;20005;-81
2023/06/19 03:17:49;;;;;;;8.50;5.45;;;22.70;71.60;;;;;;6184354;23;20443;-80
2023/06/19 03:20:15;;;;;;;9.85;6.10;;;22.70;71.70;;;;;;6185620;23;20005;-80
2023/06/19 03:22:41;;;;;;;8.35;6.15;;;22.70;72.20;;;;;;6185868;23;20013;-81
2023/06/19 03:25:08;;;;;;;7.05;5.43;;;22.60;72.50;;;;;;6158131;23;20017;-80
2023/06/19 03:27:34;;;;;;;8.60;5.93;;;22.60;72.70;;;;;;6158670;23;20442;-80
2023/06/19 03:30:00;;;;;;;10.10;5.72;;;22.60;73.00;;;;;;6158810;23;20021;-80
2023/06/19 03:32:26;;;;;;;7.30;5.55;;;22.60;73.30;;;;;;6157707;23;20021;-81
2023/06/19 03:34:51;;;;;;;8.90;5.75;;;22.50;73.70;;;;;;6158846;23;20338;-81
2023/06/19 03:37:17;;;;;;;8.77;5.45;;;22.50;73.90;;;;;;6159232;23;20021;-82
2023/06/19 03:39:42;;;;;;;8.75;5.35;;;22.50;74.90;;;;;;6157965;23;20119;-82
2023/06/19 03:42:08;;;;;;;7.95;5.65;;;22.50;75.00;;;;;;6158812;23;20394;-82
2023/06/19 03:44:34;;;;;;;7.43;5.55;;;22.50;75.00;;;;;;6185581;23;20381;-82
2023/06/19 03:46:59;;;;;;;6.70;5.40;;;22.50;75.00;;;;;;6184298;23;20326;-83
2023/06/19 03:49:25;;;;;;;8.23;5.75;;;22.50;75.60;;;;;;6185599;23;20028;-82
2023/06/19 03:51:51;;;;;;;9.13;5.25;;;22.40;74.90;;;;;;6180371;23;20438;-82
2023/06/19 03:54:17;;;;;;;7.43;5.30;;;22.40;75.30;;;;;;6154243;23;20017;-81
2023/06/19 03:56:42;;;;;;;7.03;4.82;;;22.40;75.70;;;;;;6158224;23;20021;-81
2023/06/19 03:59:08;;;;;;;6.78;5.05;;;22.40;75.80;;;;;;6156949;23;20017;-81
2023/06/19 04:01:34;;;;;;;6.90;5.07;;;22.40;75.90;;;;;;6184904;23;20021;-81
2023/06/19 04:03:59;;;;;;;8.38;5.32;;;22.30;75.30;;;;;;6184206;23;20441;-81
2023/06/19 04:06:25;;;;;;;9.48;5.57;;;22.30;76.10;;;;;;6184382;23;20125;-80
2023/06/19 04:08:51;;;;;;;8.65;5.30;;;22.30;77.60;;;;;;6159029;23;20017;-89
2023/06/19 04:11:16;;;;;;;7.32;5.00;;;22.30;77.30;;;;;;6159392;23;20319;-90
2023/06/19 04:13:42;;;;;;;7.28;5.30;;;22.30;76.60;;;;;;6158856;23;20023;-88
2023/06/19 04:16:08;;;;;;;7.40;4.93;;;22.30;77.60;;;;;;6159214;23;20378;-88
2023/06/19 04:18:33;;;;;;;6.25;4.38;;;22.30;77.00;;;;;;6158782;23;20115;-81
2023/06/19 04:20:59;;;;;;;6.72;4.82;;;22.20;77.60;;;;;;6157065;23;20017;-82
2023/06/19 04:23:24;;;;;;;6.47;4.80;;;22.20;77.40;;;;;;6186377;23;20020;-80
2023/06/19 04:25:50;;;;;;;8.82;5.00;;;22.20;77.70;;;;;;6186462;23;20013;-80
2023/06/19 04:28:16;;;;;;;6.65;4.82;;;22.20;77.80;;;;;;6158834;23;20021;-80
2023/06/19 04:30:42;;;;;;;7.32;4.72;;;22.20;78.70;;;;;;6185762;23;20020;-80
2023/06/19 04:33:08;;;;;;;6.70;4.57;;;22.10;78.80;;;;;;6185441;23;20524;-80
2023/06/19 04:35:39;;;;;;;6.32;4.53;;;22.10;78.30;;;;;;6159390;23;20021;-81
2023/06/19 04:38:08;;;;;;;6.93;4.78;;;22.10;78.70;;;;;;6158346;23;20024;-82
2023/06/19 04:40:34;;;;;;;6.03;4.30;;;22.10;78.90;;;;;;6157359;23;20020;-81
2023/06/19 04:43:06;;;;;;;8.50;4.43;;;22.10;81.30;;;;;;6153252;23;20021;-81
2023/06/19 04:45:32;;;;;;;7.55;4.22;;;22.00;81.80;;;;;;6156622;23;20020;-81
2023/06/19 04:47:58;;;;;;;6.63;4.60;;;22.00;82.60;;;;;;6184992;23;20053;-82
2023/06/19 04:50:24;;;;;;;6.90;4.15;;;22.00;82.50;;;;;;6156539;23;20048;-82
2023/06/19 04:52:50;;;;;;;7.00;4.15;;;21.90;83.20;;;;;;6184147;23;20013;-83
2023/06/19 04:55:16;;;;;;;6.88;4.18;;;21.90;83.00;;;;;;6184979;23;20009;-80
2023/06/19 04:57:41;;;;;;;5.50;4.05;;;21.90;84.00;;;;;;6158078;23;20103;-81
2023/06/19 05:00:09;;;;;;;6.13;4.25;;;21.80;83.00;;;;;;6184227;23;20021;-82
2023/06/19 05:02:35;;;;;;;8.20;4.10;;;21.80;84.70;;;;;;6157329;23;20377;-81
2023/06/19 05:05:03;;;;;;;9.73;4.40;;;21.80;84.80;;;;;;6157348;23;20051;-83
2023/06/19 05:07:32;;;;;;;8.55;4.10;;;21.80;86.10;;;;;;6158545;23;20017;-81
2023/06/19 05:09:58;;;;;;;6.22;4.10;;;21.70;85.60;;;;;;6157455;23;20020;-82
2023/06/19 05:12:24;;;;;;;5.20;3.42;;;21.80;84.80;;;;;;6186052;23;20092;-82
2023/06/19 05:14:50;;;;;;;7.38;4.05;;;21.70;85.30;;;;;;6184868;23;20052;-80
2023/06/19 05:17:15;;;;;;;5.65;3.33;;;21.70;85.60;;;;;;6157689;23;20020;-80
2023/06/19 05:19:41;;;;;;;5.97;3.55;;;21.80;85.00;;;;;;6158366;23;20017;-82
2023/06/19 05:22:06;;;;;;;5.53;3.80;;;21.70;85.50;;;;;;6159238;23;20323;-80
2023/06/19 05:24:33;;;;;;;6.90;3.85;;;21.70;86.50;;;;;;6158195;23;20104;-81
2023/06/19 05:26:58;;;;;;;5.22;3.65;;;21.70;86.60;;;;;;6185081;23;20115;-82
2023/06/19 05:29:24;;;;;;;5.90;3.88;;;21.80;85.70;;;;;;6158299;23;20449;-82
2023/06/19 05:31:50;;;;;;;5.97;3.92;;;21.70;85.80;;;;;;6184426;23;20017;-82
2023/06/19 05:34:17;;;;;;;7.03;3.58;;;21.70;85.80;;;;;;6159274;23;20020;-81
2023/06/19 05:36:44;;;;;;;5.25;3.53;;;21.70;85.40;;;;;;6158783;23;20013;-82
2023/06/19 05:39:10;;;;;;;6.10;3.67;;;21.80;85.40;;;;;;6158249;23;20012;-82
2023/06/19 05:41:36;;;;;;;6.78;3.75;;;21.80;86.10;;;;;;6186170;23;20330;-81
2023/06/19 05:44:01;;;;;;;6.38;4.00;;;21.80;86.90;;;;;;6185591;23;20017;-82
2023/06/19 05:46:27;;;;;;;6.53;4.03;;;21.80;87.70;;;;;;6184353;23;20024;-81
2023/06/19 05:48:54;;;;;;;7.57;4.20;;;21.80;87.10;;;;;;6158458;23;20044;-82
2023/06/19 05:51:20;;;;;;;6.20;4.10;;;21.80;87.80;;;;;;6159245;23;20013;-83
2023/06/19 05:53:46;;;;;;;8.32;4.80;;;21.80;88.00;;;;;;6184632;23;20161;-81
2023/06/19 05:56:12;;;;;;;8.38;4.45;;;21.80;88.80;;;;;;6158508;23;20017;-82
2023/06/19 05:58:39;;;;;;;6.07;4.60;;;21.80;89.90;;;;;;6158264;23;20017;-82
2023/06/19 06:01:04;;;;;;;8.20;4.82;;;21.80;89.00;;;;;;6158102;23;20446;-82
2023/06/19 06:03:30;;;;;;;7.90;4.30;;;21.80;88.30;;;;;;6158679;23;20024;-82
2023/06/19 06:06:02;;;;;;;10.18;4.13;;;21.80;88.30;;;;;;6156741;23;20557;-82
2023/06/19 06:08:29;;;;;;;7.35;4.10;;;21.80;87.20;;;;;;6156984;23;20055;-82
2023/06/19 06:10:55;;;;;;;8.77;4.45;;;21.80;87.40;;;;;;6184873;23;20099;-81
2023/06/19 06:13:20;;;;;;;6.97;4.15;;;21.80;89.00;;;;;;6157446;23;20047;-82
2023/06/19 06:15:46;;;;;;;8.25;4.15;;;21.80;89.10;;;;;;6158172;23;20029;-83
2023/06/19 06:18:11;;;;;;;8.60;4.30;;;21.80;90.10;;;;;;6183520;23;20021;-83
2023/06/19 06:20:37;;;;;;;7.80;4.22;;;21.80;90.10;;;;;;6184495;23;20025;-82
2023/06/19 06:23:03;;;;;;;10.32;3.85;;;21.90;90.80;;;;;;6157776;23;20017;-81
2023/06/19 06:25:28;;;;;;;6.75;3.88;;;21.80;90.50;;;;;;6184890;23;20017;-82
2023/06/19 06:27:54;;;;;;;9.13;4.03;;;21.80;90.10;;;;;;6157199;23;20023;-83
2023/06/19 06:30:20;;;;;;;5.70;3.72;;;21.80;90.60;;;;;;6157952;23;20013;-84
2023/06/19 06:32:45;;;;;;;6.97;4.18;;;21.80;90.20;;;;;;6158622;23;20028;-82
2023/06/19 06:35:11;;;;;;;7.88;4.80;;;21.80;90.90;;;;;;6183740;23;20024;-83
2023/06/19 06:37:37;;;;;;;7.60;4.97;;;21.80;91.20;;;;;;6184749;23;20075;-82
2023/06/19 06:40:07;;;;;;;10.15;5.57;;;21.80;92.00;;;;;;6158181;23;20017;-83
2023/06/19 06:42:33;;;;;;;6.57;4.80;;;21.80;92.20;;;;;;6184330;23;20325;-83
2023/06/19 06:44:59;;;;;;;8.70;6.63;;;21.70;91.40;;;;;;6184244;23;20091;-84
2023/06/19 06:47:24;;;;;;;11.38;8.20;;;21.70;91.90;;;;;;6158061;23;20013;-82
2023/06/19 06:49:50;;;;;;;11.20;7.75;;;21.70;92.20;;;;;;6183452;23;20024;-82
2023/06/19 06:52:15;;;;;;;10.85;8.25;;;21.70;92.10;;;;;;6158672;23;20072;-82
2023/06/19 06:54:41;;;;;;;10.07;8.30;;;21.70;92.10;;;;;;6158477;23;20076;-83
2023/06/19 06:57:07;;;;;;;14.40;8.88;;;21.70;92.00;;;;;;6183894;23;20109;-84
2023/06/19 06:59:32;;;;;;;12.50;9.20;;;21.70;92.00;;;;;;6158272;23;20354;-85
2023/06/19 07:01:58;;;;;;;11.07;9.13;;;21.70;91.80;;;;;;6157402;23;20080;-82
2023/06/19 07:04:23;;;;;;;15.30;10.88;;;21.60;91.80;;;;;;6157583;23;20393;-84
2023/06/19 07:06:49;;;;;;;12.98;9.80;;;21.60;92.00;;;;;;6158037;23;20020;-83
2023/06/19 07:09:15;;;;;;;18.70;12.88;;;21.60;92.00;;;;;;6157418;23;20016;-83
2023/06/19 07:11:40;;;;;;;14.18;9.68;;;21.60;92.80;;;;;;6158120;23;20203;-83
2023/06/19 07:14:06;;;;;;;11.30;8.05;;;21.60;92.50;;;;;;6158202;23;20009;-81
2023/06/19 07:16:32;;;;;;;12.77;8.68;;;21.50;92.00;;;;;;6157388;23;20017;-85
2023/06/19 07:18:57;;;;;;;10.98;9.25;;;21.50;91.90;;;;;;6184419;23;20016;-86
2023/06/19 07:21:23;;;;;;;13.30;9.85;;;21.50;92.10;;;;;;6185530;23;20474;-85
2023/06/19 07:23:49;;;;;;;14.32;8.98;;;21.50;92.30;;;;;;6157305;23;20048;-83
2023/06/19 07:26:15;;;;;;;13.60;9.73;;;21.50;92.30;;;;;;6158355;23;20017;-84
2023/06/19 07:28:41;;;;;;;14.02;8.77;;;21.50;92.40;;;;;;6158248;23;20017;-85
2023/06/19 07:31:07;;;;;;;13.40;8.75;;;21.50;92.20;;;;;;6157342;23;20028;-82
2023/06/19 07:33:34;;;;;;;13.85;9.00;;;21.50;92.00;;;;;;6158873;23;20134;-83
2023/06/19 07:38:28;;;;;;;10.82;8.43;;;21.50;91.90;;;;;;6181979;23;20017;-84
2023/06/19 07:40:54;;;;;;;11.80;7.82;;;21.50;91.60;;;;;;6158644;23;20404;-82
2023/06/19 07:43:22;;;;;;;10.00;7.50;;;21.50;91.80;;;;;;6185089;23;20329;-83
2023/06/19 07:45:48;;;;;;;10.27;6.95;;;21.50;91.60;;;;;;6184683;23;20020;-83
2023/06/19 07:48:14;;;;;;;10.88;6.72;;;21.40;92.10;;;;;;6159027;23;20012;-84
2023/06/19 07:50:39;;;;;;;10.30;6.68;;;21.50;92.00;;;;;;6158805;23;20151;-83
2023/06/19 07:53:05;;;;;;;10.98;6.68;;;21.50;92.30;;;;;;6184178;23;20040;-86
2023/06/19 07:55:31;;;;;;;12.85;6.55;;;21.40;92.10;;;;;;6185202;23;20386;-84
2023/06/19 07:57:59;;;;;;;10.75;6.60;;;21.40;92.40;;;;;;6185183;23;20452;-86
2023/06/19 08:00:24;;;;;;;10.05;5.88;;;21.40;92.60;;;;;;6184291;23;20017;-83
2023/06/19 08:02:50;;;;;;;7.18;5.35;;;21.40;92.40;;;;;;6184198;23;20039;-84
2023/06/19 08:05:16;;;;;;;9.82;5.50;;;21.30;92.30;;;;;;6183096;23;20017;-83
2023/06/19 08:07:41;;;;;;;8.27;4.82;;;21.30;92.40;;;;;;6158510;23;20040;-84
2023/06/19 08:10:07;;;;;;;8.02;4.72;;;21.30;92.30;;;;;;6182483;23;20020;-83
2023/06/19 08:12:33;;;;;;;7.95;5.00;;;21.30;92.40;;;;;;6182909;23;20599;-84
2023/06/19 08:15:02;;;;;;;8.73;5.03;;;21.30;92.30;;;;;;6158607;23;20101;-82
2023/06/19 08:17:28;;;;;;;7.35;4.90;;;21.30;92.10;;;;;;6184724;23;20053;-82
2023/06/19 08:19:54;;;;;;;7.22;4.95;;;21.30;92.00;;;;;;6156380;23;20437;-83
2023/06/19 08:22:19;;;;;;;10.07;4.95;;;21.30;92.00;;;;;;6184218;23;20055;-82
2023/06/19 08:24:45;;;;;;;7.28;4.40;;;21.30;92.00;;;;;;6184446;23;20107;-83
2023/06/19 08:27:11;;;;;;;8.85;4.60;;;21.30;91.90;;;;;;6183776;23;20377;-83
2023/06/19 08:29:36;;;;;;;8.20;4.63;;;21.30;92.10;;;;;;6158144;23;20025;-84
2023/06/19 08:32:02;;;;;;;8.75;4.65;;;21.30;92.30;;;;;;6184446;23;20020;-84
2023/06/19 08:34:28;;;;;;;7.65;4.78;;;21.30;92.10;;;;;;6157067;23;20068;-83
2023/06/19 08:36:53;;;;;;;6.93;4.80;;;21.30;91.90;;;;;;6184203;23;20052;-83
2023/06/19 08:39:22;;;;;;;6.38;4.75;;;21.30;92.20;;;;;;6184457;23;20026;-83
2023/06/19 08:41:47;;;;;;;8.80;5.13;;;21.20;92.10;;;;;;6157076;23;20029;-84
2023/06/19 08:44:13;;;;;;;7.25;4.68;;;21.30;92.10;;;;;;6184253;23;20044;-85
2023/06/19 08:46:40;;;;;;;7.88;4.90;;;21.20;92.20;;;;;;6157462;23;20345;-85
2023/06/19 08:49:10;;;;;;;6.82;4.13;;;21.20;92.30;;;;;;6156113;23;20032;-86
2023/06/19 08:51:36;;;;;;;9.82;5.40;;;21.20;92.40;;;;;;6184562;23;20096;-83
2023/06/19 08:54:06;;;;;;;6.97;5.03;;;21.10;92.40;;;;;;6184376;23;20045;-85
2023/06/19 08:56:34;;;;;;;8.13;5.47;;;21.10;92.20;;;;;;6183750;23;20086;-86
2023/06/19 08:59:14;;;;;;;7.63;4.82;;;21.20;92.20;;;;;;6157540;23;20031;-85
2023/06/19 09:01:40;;;;;;;7.57;4.60;;;21.10;92.00;;;;;;6183724;23;20013;-85
2023/06/19 09:04:11;;;;;;;9.63;5.35;;;21.10;91.70;;;;;;6157600;23;20028;-85
2023/06/19 09:06:47;;;;;;;7.45;5.38;;;21.10;92.20;;;;;;6158117;23;20025;-87
2023/06/19 09:09:14;;;;;;;8.65;5.88;;;21.20;92.10;;;;;;6183164;23;20333;-83
2023/06/19 09:11:43;;;;;;;8.77;5.50;;;21.20;92.00;;;;;;6186289;23;20013;-85
2023/06/19 09:14:10;;;;;;;8.43;5.55;;;21.30;92.00;;;;;;6159473;23;20044;-85
2023/06/19 09:16:42;;;;;;;7.05;5.10;;;21.40;91.80;;;;;;6185537;23;20021;-87
2023/06/19 09:19:08;;;;;;;9.82;6.45;;;21.40;91.50;;;;;;6186380;23;20056;-86
2023/06/19 09:21:37;;;;;;;9.45;6.13;;;21.40;91.30;;;;;;6159927;23;20028;-86
2023/06/19 09:24:07;;;;;;;12.75;6.13;;;21.50;91.30;;;;;;6185093;23;20120;-84
2023/06/19 09:26:34;;;;;;;13.30;6.72;;;21.50;91.20;;;;;;6186385;23;20048;-86
2023/06/19 09:29:13;;;;;;;10.23;7.15;;;21.50;91.10;;;;;;6186413;23;20021;-86
2023/06/19 09:31:41;;;;;;;10.60;7.10;;;21.50;91.10;;;;;;6158820;23;20020;-84
2023/06/19 09:34:07;;;;;;;12.60;7.57;;;21.50;91.00;;;;;;6185994;23;20013;-86
2023/06/19 09:36:34;;;;;;;11.30;8.00;;;21.60;90.80;;;;;;6185898;23;20019;-85
2023/06/19 09:39:01;;;;;;;10.93;7.00;;;21.60;90.90;;;;;;6185374;23;20013;-85
2023/06/19 09:41:29;;;;;;;11.50;6.82;;;21.60;90.70;;;;;;6185102;23;20016;-85
2023/06/19 09:43:59;;;;;;;10.45;7.38;;;21.60;90.60;;;;;;6157998;23;20052;-86
2023/06/19 09:46:30;;;;;;;12.20;7.53;;;21.60;90.70;;;;;;6159371;23;20021;-86
2023/06/19 09:49:01;;;;;;;11.65;7.85;;;21.70;90.50;;;;;;6159725;23;20104;-88
2023/06/19 09:51:32;;;;;;;11.82;7.00;;;21.70;90.50;;;;;;6158985;23;20020;-85
2023/06/19 09:54:00;;;;;;;13.13;7.40;;;21.70;90.40;;;;;;6186753;23;20017;-93
2023/06/19 09:56:27;;;;;;;9.50;6.82;;;21.70;90.40;;;;;;6158765;23;20092;-90
2023/06/19 09:58:59;;;;;;;11.35;7.68;;;21.70;90.10;;;;;;6159218;23;20024;-92
2023/06/19 10:01:30;;;;;;;9.80;7.60;;;21.70;90.10;;;;;;6159154;23;20021;-88
2023/06/19 10:04:07;;;;;;;11.63;7.82;;;21.70;90.00;;;;;;6184638;23;20021;-88
2023/06/19 10:06:42;;;;;;;10.90;7.43;;;21.70;90.10;;;;;;6158140;23;20024;-88
2023/06/19 10:09:09;;;;;;;12.68;8.15;;;21.70;90.20;;;;;;6159380;23;20044;-89
2023/06/19 10:11:53;;;;;;;11.90;8.13;;;21.70;90.30;;;;;;6159611;23;20021;-91
2023/06/19 10:14:24;;;;;;;13.25;9.27;;;21.70;90.30;;;;;;6159782;23;20044;-86
2023/06/19 10:16:50;;;;;;;17.58;10.88;;;21.80;90.50;;;;;;6185841;23;20067;-87
2023/06/19 10:19:17;;;;;;;16.80;10.32;;;21.80;90.40;;;;;;6184124;23;20013;-85
2023/06/19 10:21:51;;;;;;;13.13;9.68;;;21.80;90.30;;;;;;6160181;23;20040;-87
2023/06/19 10:24:19;;;;;;;12.88;9.77;;;21.80;90.20;;;;;;6158675;23;20096;-84
2023/06/19 10:26:59;;;;;;;15.65;10.35;;;21.90;90.00;;;;;;6184944;23;20028;-90
2023/06/19 10:29:26;;;;;;;12.85;9.65;;;21.90;90.00;;;;;;6186032;23;20017;-86
2023/06/19 10:31:52;;;;;;;12.25;9.60;;;21.90;90.10;;;;;;6183133;23;20013;-87
2023/06/19 10:34:18;;;;;;;14.80;9.38;;;21.90;90.10;;;;;;6156694;23;20326;-85
2023/06/19 10:36:44;;;;;;;13.40;9.52;;;22.00;90.30;;;;;;6157315;23;20055;-85
2023/06/19 10:39:10;;;;;;;12.93;9.43;;;22.10;90.60;;;;;;6156811;23;20017;-86
2023/06/19 10:41:39;;;;;;;13.75;8.55;;;22.10;90.30;;;;;;6156542;23;20024;-85
2023/06/19 10:44:12;;;;;;;10.23;7.90;;;22.20;89.80;;;;;;6157306;23;20440;-85
2023/06/19 10:46:38;;;;;;;11.98;8.60;;;22.30;89.30;;;;;;6158643;23;20024;-85
2023/06/19 10:49:05;;;;;;;9.95;8.25;;;22.30;88.70;;;;;;6184986;23;20013;-88
2023/06/19 10:51:34;;;;;;;10.68;7.65;;;22.30;88.70;;;;;;6158727;23;20013;-85
2023/06/19 10:54:00;;;;;;;10.25;7.68;;;22.30;88.60;;;;;;6155548;23;20081;-85
2023/06/19 10:56:26;;;;;;;12.48;7.43;;;22.30;88.40;;;;;;6183300;23;20021;-86
2023/06/19 10:59:06;;;;;;;12.00;7.63;;;22.30;88.40;;;;;;6158035;23;20024;-85
2023/06/19 11:01:34;;;;;;;9.77;7.15;;;22.30;88.50;;;;;;6155950;23;20012;-87
2023/06/19 11:04:02;;;;;;;11.45;7.32;;;22.30;88.70;;;;;;6182957;23;20345;-85
2023/06/19 11:06:28;;;;;;;11.90;7.00;;;22.40;88.50;;;;;;6183748;23;20024;-85
2023/06/19 11:08:56;;;;;;;9.93;7.03;;;22.40;89.00;;;;;;6156175;23;20445;-86
2023/06/19 11:11:21;;;;;;;14.68;6.85;;;22.40;88.60;;;;;;6157188;23;20021;-84
2023/06/19 11:13:47;;;;;;;10.48;7.05;;;22.40;88.70;;;;;;6182971;23;20063;-86
2023/06/19 11:16:14;;;;;;;10.70;6.70;;;22.40;88.50;;;;;;6152624;23;20024;-85
2023/06/19 11:18:40;;;;;;;12.55;6.75;;;22.50;88.80;;;;;;6182757;23;20021;-86
2023/06/19 11:21:06;;;;;;;11.98;7.55;;;22.50;88.60;;;;;;6156531;23;20344;-86
2023/06/19 11:23:31;;;;;;;9.77;7.03;;;22.60;88.10;;;;;;6182709;23;20092;-90
2023/06/19 11:26:04;;;;;;;12.02;7.43;;;22.60;88.30;;;;;;6180923;23;20088;-85
2023/06/19 11:28:30;;;;;;;;;;;22.60;88.00;;;;;;6183904;23;20028;-85
2023/06/19 11:31:03;;;;;;;15.05;7.70;;;22.60;87.90;;;;;;6155620;23;19920;-86
2023/06/19 11:33:30;;;;;;;11.55;6.93;;;22.70;87.60;;;;;;6157797;23;20079;-90
2023/06/19 11:35:59;;;;;;;11.80;7.07;;;22.80;86.80;;;;;;6184001;23;20028;-87
2023/06/19 11:38:26;;;;;;;10.23;7.25;;;22.90;86.50;;;;;;6181763;23;20017;-87
2023/06/19 11:40:56;;;;;;;9.80;7.43;;;23.00;85.80;;;;;;6158368;23;20048;-88
2023/06/19 11:43:29;;;;;;;11.55;8.02;;;23.00;84.60;;;;;;6155856;23;20024;-85
2023/06/19 11:46:07;;;;;;;12.77;7.55;;;23.10;84.80;;;;;;6182307;23;20027;-86
2023/06/19 11:48:36;;;;;;;10.15;6.60;;;23.10;83.50;;;;;;6154600;23;20426;-85
2023/06/19 11:51:09;;;;;;;13.00;7.15;;;23.20;82.90;;;;;;6178285;23;20373;-89
2023/06/19 11:53:35;;;;;;;8.32;6.38;;;23.20;82.90;;;;;;6157713;23;20095;-86
2023/06/19 11:56:00;;;;;;;11.48;7.78;;;23.30;83.50;;;;;;6156814;23;20044;-87
2023/06/19 11:58:26;;;;;;;12.02;7.78;;;23.30;83.20;;;;;;6155248;23;20009;-87
2023/06/19 12:00:53;;;;;;;11.23;7.70;;;23.40;83.00;;;;;;6184652;23;20049;-90
2023/06/19 12:03:19;;;;;;;13.02;8.05;;;23.40;83.60;;;;;;6158154;23;20164;-87
2023/06/19 12:05:44;;;;;;;17.15;8.00;;;23.50;84.00;;;;;;6156549;23;20507;-86
2023/06/19 12:08:10;;;;;;;12.73;8.30;;;23.50;84.50;;;;;;6157323;23;20322;-86
2023/06/19 12:10:36;;;;;;;9.65;7.85;;;23.60;84.20;;;;;;6184827;23;20013;-86
2023/06/19 12:13:01;;;;;;;13.70;8.80;;;23.60;84.00;;;;;;6183608;23;20019;-86
2023/06/19 12:15:27;;;;;;;11.02;8.40;;;23.60;84.00;;;;;;6158028;23;20092;-86
2023/06/19 12:17:53;;;;;;;14.10;7.93;;;23.60;84.10;;;;;;6157942;23;20064;-85
2023/06/19 12:20:19;;;;;;;11.40;7.80;;;23.70;83.70;;;;;;6155937;23;20171;-86
2023/06/19 12:22:45;;;;;;;13.20;8.05;;;23.70;83.50;;;;;;6184293;23;20140;-84
2023/06/19 12:25:11;;;;;;;12.20;7.93;;;23.70;83.30;;;;;;6157709;23;20044;-86
2023/06/19 12:27:37;;;;;;;13.35;8.40;;;23.70;83.00;;;;;;6157564;23;20068;-85
2023/06/19 12:30:04;;;;;;;12.15;7.90;;;23.80;82.50;;;;;;6184076;23;20442;-85
2023/06/19 12:32:29;;;;;;;10.70;7.68;;;23.80;83.10;;;;;;6184007;23;20056;-87
2023/06/19 12:34:55;;;;;;;12.00;7.75;;;23.80;82.80;;;;;;6157271;23;20021;-86
2023/06/19 12:37:21;;;;;;;9.98;7.20;;;23.80;82.00;;;;;;6184482;23;20013;-88
2023/06/19 12:39:48;;;;;;;12.57;7.63;;;23.80;82.30;;;;;;6184336;23;20032;-87
2023/06/19 12:42:13;;;;;;;10.35;7.25;;;23.80;82.60;;;;;;6157675;23;20013;-85
2023/06/19 12:44:40;;;;;;;10.63;8.07;;;23.80;82.40;;;;;;6185115;23;20027;-86